Terminal Aerodrome Forecast
Issued by NWS Mobile, AL

Home | Current Version | Previous Version | Text Only | Print | Product List | Glossary On
Versions: 1 2 3 4 5 6 7 8 9 10 11 12 13 14 15 16
000
FTUS44 KMOB 250539
TAFPNS
TAF
KPNS 250539Z 2506/2606 27005KT P6SM FEW019 SCT027
     FM251400 30008KT P6SM VCTS SCT050CB BKN150
     FM251600 30007KT P6SM VCTS BKN050CB BKN150
      TEMPO 2516/2520 3SM TSRA BKN030CB
     FM260200 31005KT P6SM BKN250=

USA.gov is the U.S. government's official web portal to all federal, state and local government web resources and services.